Lowell, Washington
Current Conditions -  °F | °C
As of 9:53 AM on Monday 24 Nov 2014 (Local Time) from KPAE Reporting Station
Overcast Overcast  
Wind Chill: 37°   Ceiling: 9000
Heat Index: 43°   Visibility: 10mi
Dew Point: 38°   Wind: 10mph
Humidity: 82%   Direction: 150°SSE
Pressure: 30.31"   Gusts: 18mph
Location:  47.9451°N, 122.226°W
Report Text: KPAE 241753Z 15009G16KT 10SM FEW015 BKN090 OVC110 06/03 A3031 RMK AO2 SLP266 T00610033 10067 20056 58003
Loading
Personal Weather Stations






























Interactive Weather Map New forecast layout! Learn more

10-Day Weather Forecast

Advertisements
Track Severe Weather on mobile